Bakerville, South Dakota
Current Conditions -  °F | °C
As of 2:53 AM on Thursday 23 Oct 2014 (Local Time) from KCUT Reporting Station
Clear Clear  
Wind Chill: 27°   Ceiling: Unl
Heat Index: 32°   Visibility: 10mi
Dew Point: 22°   Wind: 5mph
Humidity: 66%   Direction: 270°W
Pressure: 30.07"   Gusts: NA
Location:  43.6653°N, 103.766°W
Report Text: KCUT 230853Z AUTO 27004KT 10SM CLR 00/M06 A3007 RMK AO2 SLP167 T00001056 58002
Loading
Personal Weather Stations






























Interactive Weather Map New forecast layout! Learn more

10-Day Weather Forecast

Advertisements
Track Severe Weather on mobile